Max Meadows, Virginia
Current Conditions -  °F | °C
As of 6:55 AM on Thursday 27 Nov 2014 (Local Time) from KHLX Reporting Station
Light Snow Light Snow  
Wind Chill: 26°   Ceiling: 300
Heat Index: 32°   Visibility: 1.2mi
Dew Point: 31°   Wind: 7mph
Humidity: 98%   Direction: 300°WNW
Pressure: 29.95"   Gusts: NA
Location:  36.97°N, 80.95°W
Report Text: KHLX 271155Z AUTO 30006KT 1 1/4SM -SN OVC003 00/00 A2995 RMK AO2 7//// T00001003 10020 20000
Loading
Personal Weather Stations






























Interactive Weather Map New forecast layout! Learn more

10-Day Weather Forecast

Advertisements
Track Severe Weather on mobile